Current Weather

Quakertown

Quakertown, Pennsylvania (KUKT)

Report from: Tuesday, May 21, 2024 12:35 PM EDT
Current time: Tuesday, May 21, 2024 12:57 PM EDT

Nearby weather – Weather history – Daily summaries
Weather forecast

Temperature27.0°C (80.6°F)
Heat index28.2°C (82.7°F)
Dew point18.0°C (64.4°F)
Winds Calm
Visibility10 mi. (16.1 km)
Clouds Sky clear
Altimeter30.00 in.Hg (1016 mB)
Relative humidity58 %
Density altitude1,576 ft. (480 m)
Remarks Fully automated report
Automated weather observing station with precipitation discriminator
Flight conditions Visual Meteorological Conditions
Raw dataKUKT 211635Z AUTO 00000KT 10SM CLR 27/18 A3000 RMK AO2
An error has occurred. This application may no longer respond until reloaded. Reload 🗙